createdAt,value
2019-05-06T00:02:01.823Z,93963.20
2019-05-06T00:04:30.468Z,93955.37
2019-05-06T00:06:59.036Z,93953.02
2019-05-06T00:09:27.692Z,93944.38
2019-05-06T00:11:56.356Z,93942.32
2019-05-06T00:14:25.053Z,93938.41
2019-05-06T00:17:14.617Z,93937.33
2019-05-06T00:19:44.767Z,93945.69
2019-05-06T00:22:14.188Z,93943.91
2019-05-06T00:24:47.286Z,93942.86
2019-05-06T00:27:20.521Z,93937.91
2019-05-06T00:29:49.085Z,93937.39
2019-05-06T00:32:17.829Z,93932.72
2019-05-06T00:34:46.488Z,93930.89
2019-05-06T00:37:15.107Z,93934.25
2019-05-06T00:39:54.528Z,93946.02
2019-05-06T00:42:30.535Z,93953.85
2019-05-06T00:45:01.007Z,93946.28
2019-05-06T00:47:29.710Z,93941.58
2019-05-06T00:49:58.356Z,93946.30
2019-05-06T00:52:27.158Z,93944.20
2019-05-06T00:54:55.802Z,93942.63
2019-05-06T00:57:26.094Z,93939.78
2019-05-06T00:59:54.740Z,93938.50
2019-05-06T01:02:23.539Z,93939.28
2019-05-06T01:04:54.125Z,93938.48
2019-05-06T01:07:23.655Z,93941.88
2019-05-06T01:09:54.189Z,93933.55
2019-05-06T01:12:23.976Z,93927.53
2019-05-06T01:14:54.670Z,93939.02
2019-05-06T01:17:24.379Z,93941.63
2019-05-06T01:19:54.096Z,93942.66
2019-05-06T01:22:24.637Z,93942.39
2019-05-06T01:24:55.703Z,93937.67
2019-05-06T01:27:24.142Z,93941.81
2019-05-06T01:29:54.437Z,93941.82
2019-05-06T01:32:24.670Z,93941.80
2019-05-06T01:34:53.827Z,93945.97
2019-05-06T01:37:23.976Z,93941.78
2019-05-06T01:40:04.092Z,93938.67
2019-05-06T01:42:46.498Z,93932.39
2019-05-06T01:45:15.251Z,93936.30
2019-05-06T01:47:43.895Z,93931.59
2019-05-06T01:50:14.009Z,93925.34
2019-05-06T01:52:44.310Z,93941.22
2019-05-06T01:55:14.192Z,93946.95
2019-05-06T01:57:44.439Z,93953.44
2019-05-06T02:00:14.181Z,93954.48
2019-05-06T02:02:43.874Z,93948.23
2019-05-06T02:05:13.848Z,93951.08
2019-05-06T02:07:44.120Z,93948.76
2019-05-06T02:10:14.151Z,93949.53
2019-05-06T02:12:44.370Z,93945.59
2019-05-06T02:15:14.603Z,93950.53
2019-05-06T02:17:44.084Z,93947.93
2019-05-06T02:20:13.795Z,93946.07
2019-05-06T02:22:56.235Z,93947.11
2019-05-06T02:25:29.690Z,93944.73
2019-05-06T02:27:58.347Z,93937.72
2019-05-06T02:30:31.319Z,93937.72
2019-05-06T02:33:07.665Z,93941.08
2019-05-06T02:35:45.415Z,93940.02
2019-05-06T02:38:30.349Z,93941.58
2019-05-06T02:40:55.178Z,93937.41
2019-05-06T02:43:23.855Z,93938.69
2019-05-06T02:45:53.182Z,93936.84
2019-05-06T02:48:43.020Z,93937.06
2019-05-06T02:51:13.391Z,93939.92
2019-05-06T02:53:43.058Z,93940.39
2019-05-06T02:56:13.346Z,93945.30
2019-05-06T02:58:43.688Z,93944.81
2019-05-06T03:01:13.539Z,93947.88
2019-05-06T03:03:43.550Z,93949.16
2019-05-06T03:06:13.278Z,93951.27
2019-05-06T03:08:43.517Z,93951.29
2019-05-06T03:11:13.523Z,93947.41
2019-05-06T03:13:43.764Z,93943.78
2019-05-06T03:16:14.243Z,93960.73
2019-05-06T03:18:43.483Z,93955.81
2019-05-06T03:21:14.117Z,93962.11
2019-05-06T03:23:47.527Z,93959.31
2019-05-06T03:26:16.199Z,93954.60
2019-05-06T03:28:44.822Z,93956.98
2019-05-06T03:31:16.496Z,93957.80
2019-05-06T03:33:58.383Z,93961.22
2019-05-06T03:36:24.166Z,93960.99
2019-05-06T03:38:44.532Z,93972.20
2019-05-06T03:41:13.922Z,93974.58
2019-05-06T03:43:43.672Z,93976.16
2019-05-06T03:46:14.441Z,93976.17
2019-05-06T03:48:47.539Z,93978.24
2019-05-06T03:51:16.255Z,93979.27
2019-05-06T03:53:45.597Z,93983.94
2019-05-06T03:56:19.736Z,93982.13
2019-05-06T03:58:46.122Z,93982.94
2019-05-06T04:01:16.843Z,93978.74
2019-05-06T04:03:52.024Z,93981.38
2019-05-06T04:06:15.855Z,93982.17
2019-05-06T04:08:44.994Z,93982.71
2019-05-06T04:11:15.757Z,93980.63
2019-05-06T04:13:45.612Z,93980.89
2019-05-06T04:16:18.929Z,93977.31
2019-05-06T04:19:04.373Z,93977.84
2019-05-06T04:21:43.432Z,93979.69
2019-05-06T04:24:16.032Z,93981.80
2019-05-06T04:26:53.513Z,93989.10
2019-05-06T04:29:24.107Z,93990.65
2019-05-06T04:31:54.060Z,93987.75
2019-05-06T04:34:23.512Z,93982.78
2019-05-06T04:36:53.425Z,93978.88
2019-05-06T04:39:23.451Z,93974.42
2019-05-06T04:41:53.878Z,93971.23
2019-05-06T04:44:23.861Z,93969.61
2019-05-06T04:46:54.358Z,93968.27
2019-05-06T04:49:23.904Z,93972.08
2019-05-06T04:51:54.176Z,93972.25
2019-05-06T04:54:26.499Z,93972.20
2019-05-06T04:56:53.926Z,93976.84
2019-05-06T04:59:23.297Z,93979.59
2019-05-06T05:01:53.518Z,93976.54
2019-05-06T05:04:31.136Z,93968.81
2019-05-06T05:06:53.019Z,93965.58
2019-05-06T05:09:23.050Z,93968.06
2019-05-06T05:11:53.954Z,93976.88
2019-05-06T05:14:26.980Z,93978.89
2019-05-06T05:16:57.325Z,93993.77
2019-05-06T05:19:27.228Z,93990.02
2019-05-06T05:21:57.510Z,93977.89
2019-05-06T05:24:26.147Z,93981.72
2019-05-06T05:26:54.823Z,93994.83
2019-05-06T05:29:23.476Z,93999.61
2019-05-06T05:31:52.960Z,94001.42
2019-05-06T05:34:22.430Z,94001.39
2019-05-06T05:36:52.222Z,93996.33
2019-05-06T05:39:22.289Z,93995.41
2019-05-06T05:41:52.215Z,93992.14
2019-05-06T05:44:35.029Z,94002.80
2019-05-06T05:47:03.657Z,93996.75
2019-05-06T05:49:34.267Z,93988.90
2019-05-06T05:52:03.546Z,93974.08
2019-05-06T05:54:33.280Z,93977.60
2019-05-06T05:57:03.354Z,93975.72
2019-05-06T05:59:32.987Z,93978.61
2019-05-06T06:02:03.789Z,93983.88
2019-05-06T06:04:32.403Z,93984.72
2019-05-06T06:07:02.719Z,93981.10
2019-05-06T06:09:33.416Z,93982.56
2019-05-06T06:12:03.629Z,93980.66
2019-05-06T06:14:44.427Z,93985.33
2019-05-06T06:17:27.009Z,93980.41
2019-05-06T06:20:03.011Z,93972.13
2019-05-06T06:22:33.081Z,93977.25
2019-05-06T06:25:04.250Z,93982.91
2019-05-06T06:27:33.856Z,93976.12
2019-05-06T06:30:02.629Z,93975.13
2019-05-06T06:32:32.563Z,93976.16
2019-05-06T06:35:14.653Z,93987.92
2019-05-06T06:37:44.458Z,93986.75
2019-05-06T06:40:15.029Z,93991.89
2019-05-06T06:42:45.320Z,93983.24
2019-05-06T06:45:14.031Z,93980.98
2019-05-06T06:47:42.718Z,93983.70
2019-05-06T06:50:12.580Z,93989.66
2019-05-06T06:52:42.165Z,93981.19
2019-05-06T06:55:13.001Z,93981.31
2019-05-06T06:57:59.993Z,93968.06
2019-05-06T07:00:33.684Z,93970.01
2019-05-06T07:03:04.891Z,93965.61
2019-05-06T07:05:52.769Z,93965.67
2019-05-06T07:08:33.888Z,93967.72
2019-05-06T07:10:52.513Z,93968.19
2019-05-06T07:13:23.156Z,93962.00
2019-05-06T07:15:52.164Z,93962.56
2019-05-06T07:18:22.582Z,93962.13
2019-05-06T07:21:06.301Z,93958.14
2019-05-06T07:23:36.836Z,93953.14
2019-05-06T07:26:05.482Z,93958.00
2019-05-06T07:28:34.130Z,93956.27
2019-05-06T07:31:17.520Z,93962.37
2019-05-06T07:33:33.708Z,93959.22
2019-05-06T07:36:02.617Z,93961.58
2019-05-06T07:38:32.542Z,93957.56
2019-05-06T07:41:04.618Z,93957.00
2019-05-06T07:43:37.896Z,93954.63
2019-05-06T07:46:23.361Z,93949.44
2019-05-06T07:48:51.878Z,93947.51
2019-05-06T07:51:20.777Z,93942.50
2019-05-06T07:53:49.432Z,93947.41
2019-05-06T08:30:33.539Z,93966.96
2019-05-06T08:33:02.903Z,93978.11
2019-05-06T08:35:33.146Z,93983.23
2019-05-06T08:38:02.367Z,93991.52
2019-05-06T08:40:32.175Z,93999.96
2019-05-06T08:43:02.211Z,94000.25
2019-05-06T08:45:32.474Z,94016.77
2019-05-06T08:48:02.959Z,94009.16
2019-05-06T08:50:52.871Z,94016.25
2019-05-06T08:53:38.292Z,94036.73
2019-05-06T08:56:08.521Z,94054.48
2019-05-06T08:58:47.087Z,94060.07
2019-05-06T09:01:28.834Z,94066.91
2019-05-06T09:04:08.712Z,94075.05
2019-05-06T09:06:31.558Z,94075.01
2019-05-06T09:08:58.265Z,94079.82
2019-05-06T09:11:27.311Z,94080.09
2019-05-06T09:13:56.036Z,94064.44
2019-05-06T09:16:24.682Z,94066.45
2019-05-06T09:18:53.524Z,94064.80
2019-05-06T09:21:22.722Z,94058.80
2019-05-06T09:23:53.124Z,94052.82
2019-05-06T09:26:35.743Z,94052.75
2019-05-06T09:29:06.213Z,94051.23
2019-05-06T09:31:39.169Z,94053.19
2019-05-06T09:34:23.353Z,94063.02
2019-05-06T09:37:09.881Z,94060.42
2019-05-06T09:39:38.513Z,94064.02
2019-05-06T09:42:07.158Z,94060.81
2019-05-06T09:44:35.806Z,94058.11
2019-05-06T09:47:06.400Z,94049.89
2019-05-06T09:49:42.766Z,94051.34
2019-05-06T09:52:12.960Z,94039.97
2019-05-06T09:54:49.260Z,94037.42
2019-05-06T09:57:22.308Z,94039.39
2019-05-06T09:59:52.747Z,94038.98
2019-05-06T10:02:23.168Z,94040.92
2019-05-06T10:04:52.340Z,94036.28
2019-05-06T10:07:22.543Z,94035.17
2019-05-06T10:09:52.576Z,94036.84
2019-05-06T10:12:21.506Z,94034.66
2019-05-06T10:14:52.967Z,94037.98
2019-05-06T10:17:21.111Z,94031.44
2019-05-06T10:19:49.803Z,94038.30
2019-05-06T10:22:18.441Z,94036.06
2019-05-06T10:24:47.116Z,94022.84
2019-05-06T10:27:15.783Z,94027.13
2019-05-06T10:29:55.343Z,94022.50
2019-05-06T10:32:42.686Z,94015.76
2019-05-06T10:35:13.120Z,94018.14
2019-05-06T10:37:47.688Z,94014.72
2019-05-06T10:40:22.762Z,94012.06
2019-05-06T10:43:18.873Z,94003.32
2019-05-06T10:45:47.515Z,93997.69
2019-05-06T10:48:16.170Z,93988.63
2019-05-06T10:50:46.428Z,94000.47
2019-05-06T10:53:16.710Z,93993.15
2019-05-06T10:55:59.337Z,93989.34
2019-05-06T10:58:27.977Z,93992.05
2019-05-06T11:01:03.457Z,93992.06
2019-05-06T11:03:33.065Z,93982.50
2019-05-06T11:06:02.594Z,93982.47
2019-05-06T11:08:32.617Z,93994.80
2019-05-06T11:11:14.835Z,93999.42
2019-05-06T11:13:32.283Z,93996.20
2019-05-06T11:16:03.396Z,94003.63
2019-05-06T11:18:33.430Z,94000.27
2019-05-06T11:21:03.444Z,94015.42
2019-05-06T11:23:33.784Z,94012.09
2019-05-06T11:26:03.200Z,94016.66
2019-05-06T11:28:48.668Z,94028.69
2019-05-06T11:31:37.114Z,94030.60
2019-05-06T11:34:16.653Z,94023.53
2019-05-06T11:36:46.920Z,94038.46
2019-05-06T11:39:15.559Z,94036.52
2019-05-06T11:42:01.656Z,94045.84
2019-05-06T11:44:16.003Z,94035.52
2019-05-06T11:46:44.630Z,94018.22
2019-05-06T11:49:13.271Z,94016.64
2019-05-06T11:51:43.503Z,94018.75
2019-05-06T11:54:17.504Z,94010.31
2019-05-06T11:56:51.324Z,93994.69
2019-05-06T11:59:14.764Z,93996.33
2019-05-06T12:01:45.180Z,93993.30
2019-05-06T12:04:14.068Z,93990.68
2019-05-06T12:06:42.871Z,94013.62
2019-05-06T12:09:16.443Z,94019.92
2019-05-06T12:11:43.231Z,94004.00
2019-05-06T12:14:12.474Z,94012.66
2019-05-06T12:16:41.457Z,94022.02
2019-05-06T12:19:10.145Z,94016.58
2019-05-06T12:21:38.695Z,94012.33
2019-05-06T12:24:07.353Z,94021.88
2019-05-06T12:26:35.992Z,94018.97
2019-05-06T12:29:04.688Z,94006.99
2019-05-06T12:31:33.395Z,94012.31
2019-05-06T12:34:02.768Z,94021.21
2019-05-06T12:36:32.599Z,94019.38
2019-05-06T12:39:17.672Z,94012.22
2019-05-06T12:41:47.222Z,94022.11
2019-05-06T12:44:15.868Z,94019.22
2019-05-06T12:47:03.403Z,94031.78
2019-05-06T12:49:32.705Z,94025.80
2019-05-06T12:52:01.460Z,94023.66
2019-05-06T12:54:30.142Z,94019.27
2019-05-06T12:56:59.520Z,94017.78
2019-05-06T12:59:28.248Z,94014.20
2019-05-06T13:01:57.031Z,94022.33
2019-05-06T13:04:48.498Z,94010.31
2019-05-06T13:06:56.024Z,94012.43
2019-05-06T13:09:24.723Z,94010.08
2019-05-06T13:11:54.062Z,93987.87
2019-05-06T13:14:22.696Z,93987.54
2019-05-06T13:16:53.273Z,93985.14
2019-05-06T13:19:22.807Z,93968.12
2019-05-06T13:21:51.700Z,93957.34
2019-05-06T13:24:22.818Z,93953.06
2019-05-06T13:26:52.796Z,93937.59
2019-05-06T13:29:24.382Z,93962.94
2019-05-06T13:31:53.248Z,93966.59
2019-05-06T13:34:23.501Z,93971.69
2019-05-06T13:36:53.244Z,93976.16
2019-05-06T13:39:23.679Z,93963.81
2019-05-06T13:41:53.011Z,93954.77
2019-05-06T13:44:22.815Z,93947.39
2019-05-06T13:46:53.407Z,93946.20
2019-05-06T13:49:38.936Z,93936.22
2019-05-06T13:52:08.654Z,93934.58
2019-05-06T13:54:37.435Z,93939.88
2019-05-06T13:57:06.041Z,93942.33
2019-05-06T13:59:36.152Z,93945.78
2019-05-06T14:02:15.995Z,93937.97
2019-05-06T14:04:44.236Z,93939.27
2019-05-06T14:07:13.316Z,93928.11
2019-05-06T14:09:43.597Z,93932.14
2019-05-06T14:12:12.399Z,93928.66
2019-05-06T14:14:43.157Z,93937.12
2019-05-06T14:17:12.728Z,93931.36
2019-05-06T14:19:42.911Z,93938.09
2019-05-06T14:22:12.489Z,93933.70
2019-05-06T14:24:43.311Z,93939.42
2019-05-06T14:27:12.651Z,93939.70
2019-05-06T14:29:42.918Z,93932.95
2019-05-06T14:32:12.318Z,93927.77
2019-05-06T14:34:43.347Z,93929.73
2019-05-06T14:37:12.167Z,93931.14
2019-05-06T14:39:59.561Z,93923.02
2019-05-06T14:42:25.654Z,93920.33
2019-05-06T14:44:54.347Z,93918.52
2019-05-06T14:47:24.612Z,93913.45
2019-05-06T14:49:53.281Z,93912.13
2019-05-06T14:52:22.654Z,93911.11
2019-05-06T14:54:55.986Z,93914.85
2019-05-06T14:57:25.473Z,93913.78
2019-05-06T14:59:55.575Z,93915.83
2019-05-06T15:02:27.148Z,93919.88
2019-05-06T15:04:56.022Z,93933.89
2019-05-06T15:07:24.794Z,93938.64
2019-05-06T15:10:02.544Z,93933.02
2019-05-06T15:12:23.880Z,93929.50
2019-05-06T15:14:52.935Z,93936.38
2019-05-06T15:17:22.850Z,93939.70
2019-05-06T15:19:52.561Z,93944.70
2019-05-06T15:22:22.662Z,93944.33
2019-05-06T15:24:53.710Z,93947.97
2019-05-06T15:27:22.750Z,93949.97
2019-05-06T15:29:54.007Z,93957.78
2019-05-06T15:32:24.326Z,93966.63
2019-05-06T15:34:56.263Z,93977.00
2019-05-06T15:37:26.598Z,93973.49
2019-05-06T15:39:55.242Z,93985.08
2019-05-06T15:42:23.971Z,93992.16
2019-05-06T15:44:52.610Z,94005.00
2019-05-06T15:47:22.670Z,94009.17
2019-05-06T15:49:52.643Z,94017.00
2019-05-06T15:52:23.542Z,94017.00
2019-05-06T15:54:52.486Z,94021.66
2019-05-06T15:57:22.857Z,94027.90
2019-05-06T15:59:52.916Z,94037.98
2019-05-06T16:02:23.363Z,94037.42
2019-05-06T16:04:52.258Z,94033.97
2019-05-06T16:07:24.915Z,94043.53
2019-05-06T16:09:54.983Z,94048.70
2019-05-06T16:12:22.109Z,94059.08
2019-05-06T16:14:53.133Z,94065.00
2019-05-06T16:17:23.607Z,94072.73
2019-05-06T16:19:51.605Z,94076.08
2019-05-06T16:22:22.413Z,94084.64
2019-05-06T16:24:54.973Z,94088.73
2019-05-06T16:27:23.637Z,94092.58
2019-05-06T16:29:52.969Z,94102.89
2019-05-06T16:32:22.046Z,94107.69
2019-05-06T16:34:52.452Z,94122.39
2019-05-06T16:37:22.285Z,94111.09
2019-05-06T16:39:54.154Z,94116.89
2019-05-06T16:42:22.420Z,94107.78
2019-05-06T16:44:52.694Z,94118.06
2019-05-06T16:47:23.202Z,94117.27
2019-05-06T16:49:53.114Z,94116.45
2019-05-06T16:52:22.442Z,94108.09
2019-05-06T16:54:52.107Z,94108.48
2019-05-06T16:57:23.805Z,94104.06
2019-05-06T16:59:52.442Z,94115.10
2019-05-06T17:02:23.886Z,94110.30
2019-05-06T17:05:12.471Z,94116.15
2019-05-06T17:07:42.236Z,94124.69
2019-05-06T17:10:11.948Z,94129.79
2019-05-06T17:12:40.612Z,94127.57
2019-05-06T17:15:10.019Z,94128.64
2019-05-06T17:17:43.436Z,94127.84
2019-05-06T17:20:09.160Z,94131.19
2019-05-06T17:22:37.982Z,94133.83
2019-05-06T17:25:07.024Z,94136.38
2019-05-06T17:27:37.240Z,94144.22
2019-05-06T17:30:12.735Z,94146.03
2019-05-06T17:32:49.020Z,94147.55
2019-05-06T17:35:17.666Z,94151.94
2019-05-06T17:37:52.713Z,94144.43
2019-05-06T17:40:23.083Z,94138.13
2019-05-06T17:42:53.319Z,94136.88
2019-05-06T17:45:40.371Z,94122.50
2019-05-06T17:48:12.764Z,94126.34
2019-05-06T17:50:42.007Z,94133.54
2019-05-06T17:53:12.300Z,94134.78
2019-05-06T17:55:43.164Z,94139.92
2019-05-06T17:58:13.030Z,94136.87
2019-05-06T18:00:42.953Z,94131.05
2019-05-06T18:03:11.730Z,94128.41
2019-05-06T18:05:42.140Z,94119.72
2019-05-06T18:08:12.858Z,94115.27
2019-05-06T18:10:42.643Z,94116.56
2019-05-06T18:13:12.517Z,94123.09
2019-05-06T18:15:43.114Z,94136.29
2019-05-06T18:18:12.999Z,94130.58
2019-05-06T18:20:42.687Z,94132.12
2019-05-06T18:23:12.916Z,94128.80
2019-05-06T18:25:43.108Z,94133.23
2019-05-06T18:28:12.347Z,94144.17
2019-05-06T18:30:41.116Z,94145.47
2019-05-06T18:33:09.739Z,94145.47
2019-05-06T18:35:38.401Z,94146.84
2019-05-06T18:38:07.102Z,94153.60
2019-05-06T18:40:35.731Z,94157.49
2019-05-06T18:43:04.365Z,94166.64
2019-05-06T18:45:33.908Z,94170.53
2019-05-06T18:48:02.854Z,94171.83
2019-05-06T18:50:32.119Z,94161.44
2019-05-06T18:53:02.465Z,94165.63
2019-05-06T18:55:33.088Z,94169.62
2019-05-06T18:58:02.349Z,94165.22
2019-05-06T19:00:32.047Z,94166.10
2019-05-06T19:03:02.654Z,94164.45
2019-05-06T19:05:33.055Z,94159.42
2019-05-06T19:08:03.614Z,94168.14
2019-05-06T19:10:33.901Z,94171.02
2019-05-06T19:13:02.689Z,94171.67
2019-05-06T19:15:33.193Z,94168.59
2019-05-06T19:18:02.259Z,94178.61
2019-05-06T19:20:33.849Z,94173.66
2019-05-06T19:23:02.328Z,94186.75
2019-05-06T19:25:33.934Z,94185.94
2019-05-06T19:28:02.235Z,94188.06
2019-05-06T19:30:32.041Z,94187.50
2019-05-06T19:33:03.049Z,94192.00
2019-05-06T19:35:34.205Z,94196.48
2019-05-06T19:38:04.781Z,94205.33
2019-05-06T19:40:33.184Z,94205.50
2019-05-06T19:43:03.002Z,94204.44
2019-05-06T19:45:34.385Z,94210.83
2019-05-06T19:48:02.953Z,94211.53
2019-05-06T19:50:32.972Z,94213.91
2019-05-06T19:53:01.726Z,94217.58
2019-05-06T19:55:30.361Z,94220.39
2019-05-06T19:57:59.681Z,94236.25
2019-05-06T20:00:28.391Z,94242.08
2019-05-06T20:02:56.959Z,94242.48
2019-05-06T20:05:33.024Z,94237.10
2019-05-06T20:08:09.275Z,94232.65
2019-05-06T20:10:39.590Z,94244.38
2019-05-06T20:13:08.275Z,94244.14
2019-05-06T20:15:38.299Z,94239.48
2019-05-06T20:18:08.230Z,94239.56
2019-05-06T20:20:37.273Z,94241.79
2019-05-06T20:23:06.341Z,94242.69
2019-05-06T20:25:37.130Z,94243.91
2019-05-06T20:28:05.558Z,94245.28
2019-05-06T20:30:34.225Z,94243.98
2019-05-06T20:33:02.790Z,94244.16
2019-05-06T20:35:32.281Z,94245.45
2019-05-06T20:38:02.754Z,94247.52
2019-05-06T20:40:32.702Z,94249.06
2019-05-06T20:43:14.041Z,94254.75
2019-05-06T20:45:35.066Z,94258.50
2019-05-06T20:48:03.215Z,94273.12
2019-05-06T20:50:32.356Z,94268.48
2019-05-06T20:53:01.180Z,94262.95
2019-05-06T20:55:33.265Z,94272.53
2019-05-06T20:58:02.532Z,94271.52
2019-05-06T21:00:33.286Z,94275.38
2019-05-06T21:03:00.995Z,94248.91
2019-05-06T21:05:29.614Z,94269.34
2019-05-06T21:07:58.286Z,94272.84
2019-05-06T21:10:27.032Z,94263.34
2019-05-06T21:12:55.599Z,94264.51
2019-05-06T21:15:24.226Z,94261.88
2019-05-06T21:17:52.870Z,94251.14
2019-05-06T21:20:21.512Z,94265.61
2019-05-06T21:22:52.633Z,94261.09
2019-05-06T21:25:22.494Z,94271.41
2019-05-06T21:27:53.071Z,94276.41
2019-05-06T21:30:21.114Z,94276.87
2019-05-06T21:32:51.934Z,94273.88
2019-05-06T21:35:22.230Z,94276.93
2019-05-06T21:37:52.831Z,94276.93
2019-05-06T21:40:20.996Z,94277.30
2019-05-06T21:42:49.632Z,94285.35
2019-05-06T21:45:19.065Z,94279.30
2019-05-06T21:47:47.709Z,94260.83
2019-05-06T21:50:16.346Z,94260.83
2019-05-06T21:52:44.991Z,94274.05
2019-05-06T21:55:15.564Z,94279.66
2019-05-06T21:57:44.266Z,94281.57
2019-05-06T22:00:17.005Z,94282.61
2019-05-06T22:02:44.636Z,94283.28
2019-05-06T22:05:13.537Z,94283.28
2019-05-06T22:07:43.393Z,94286.48
2019-05-06T22:10:13.270Z,94286.48
2019-05-06T22:12:43.446Z,94292.41
2019-05-06T22:15:12.392Z,94298.52
2019-05-06T22:17:42.927Z,94276.66
2019-05-06T22:20:11.541Z,94293.33
2019-05-06T22:22:42.573Z,94293.33
2019-05-06T22:25:12.557Z,94280.55
2019-05-06T22:27:42.400Z,94280.55
2019-05-06T22:30:11.698Z,94307.13
2019-05-06T22:32:46.561Z,94322.09
2019-05-06T22:35:17.063Z,94308.59
2019-05-06T22:37:45.699Z,94308.59
2019-05-06T22:40:14.440Z,94320.66
2019-05-06T22:42:43.287Z,94318.14
2019-05-06T22:45:12.553Z,94318.14
2019-05-06T22:47:42.154Z,94313.48
2019-05-06T22:50:13.086Z,94316.48
2019-05-06T22:52:42.262Z,94318.31
2019-05-06T22:55:12.965Z,94314.28
2019-05-06T22:57:42.349Z,94314.28
2019-05-06T23:00:15.225Z,94324.58
2019-05-06T23:02:52.830Z,94336.84
2019-05-06T23:05:23.124Z,94336.84
2019-05-06T23:07:53.234Z,94334.91
2019-05-06T23:10:24.560Z,94329.16
2019-05-06T23:12:52.479Z,94329.16
2019-05-06T23:15:21.129Z,94346.67
2019-05-06T23:17:49.779Z,94348.84
2019-05-06T23:20:18.404Z,94327.16
2019-05-06T23:22:46.964Z,94350.84
2019-05-06T23:25:15.596Z,94349.55
2019-05-06T23:27:44.318Z,94354.64
2019-05-06T23:30:12.958Z,94371.59
2019-05-06T23:32:42.257Z,94372.39
2019-05-06T23:35:12.885Z,94368.35
2019-05-06T23:38:17.760Z,94371.09
2019-05-06T23:41:22.516Z,94379.14
2019-05-06T23:44:27.330Z,94375.30
2019-05-06T23:47:34.081Z,94380.55
2019-05-06T23:50:39.512Z,94380.55
2019-05-06T23:53:44.451Z,94382.06
2019-05-06T23:56:45.786Z,94382.69
2019-05-06T23:59:17.210Z,94381.55
